Time;durP1;ratioP1;P1;durP2;ratioP2;P2;SDS_P1;SDS_P2;PMS_P1;PMS_P2;Temp;Humidity;BMP_temperature;BMP_pressure;BME280_temperature;BME280_humidity;BME280_pressure;Samples;Min_cycle;Max_cycle;Signal;HPM_P1;HPM_P2
2023/11/27 00:01:55;;;;;;;39.70;24.70;;;;;;;7.63;77.73;99160.63;5013646;28;20132;-74
2023/11/27 00:04:22;;;;;;;37.58;24.33;;;;;;;7.62;77.22;99156.34;5013349;28;20038;-75
2023/11/27 00:06:48;;;;;;;33.33;23.40;;;;;;;7.61;77.40;99162.50;5013443;28;20092;-76
2023/11/27 00:09:15;;;;;;;45.78;24.95;;;;;;;7.59;77.32;99161.72;4995690;28;20045;-76
2023/11/27 00:11:42;;;;;;;35.83;23.83;;;;;;;7.56;76.82;99152.25;5013490;28;20117;-77
2023/11/27 00:14:08;;;;;;;36.38;22.20;;;;;;;7.53;77.11;99157.69;5013286;28;20089;-75
2023/11/27 00:16:35;;;;;;;37.75;22.27;;;;;;;7.51;76.97;99156.09;5013265;28;20069;-77
2023/11/27 00:19:01;;;;;;;35.22;21.25;;;;;;;7.48;76.97;99154.44;4995577;28;20049;-76
2023/11/27 00:21:28;;;;;;;30.73;21.42;;;;;;;7.46;77.36;99150.22;5013020;28;20064;-75
2023/11/27 00:23:55;;;;;;;34.42;22.27;;;;;;;7.45;77.49;99138.94;5005172;28;20454;-76
2023/11/27 00:26:21;;;;;;;36.33;23.02;;;;;;;7.44;77.09;99134.59;5013225;28;20058;-75
2023/11/27 00:28:48;;;;;;;34.88;21.30;;;;;;;7.43;77.38;99136.38;5013092;28;20495;-76
2023/11/27 00:31:15;;;;;;;34.38;21.77;;;;;;;7.42;77.21;99136.47;5013067;28;20084;-74
2023/11/27 00:33:45;;;;;;;37.13;21.83;;;;;;;7.38;76.55;99138.41;5012598;28;20053;-75
2023/11/27 00:36:12;;;;;;;36.65;21.02;;;;;;;7.40;77.11;99135.72;5012758;28;20050;-76
2023/11/27 00:38:40;;;;;;;36.78;21.30;;;;;;;7.37;77.17;99123.59;5013024;28;20061;-75
2023/11/27 00:41:07;;;;;;;38.33;21.30;;;;;;;7.36;77.33;99108.00;4995431;28;20042;-77
2023/11/27 00:43:34;;;;;;;30.00;21.25;;;;;;;7.35;77.23;99106.28;5012608;28;20100;-74
2023/11/27 00:46:01;;;;;;;30.30;19.92;;;;;;;7.34;76.77;99102.84;5012800;28;20081;-76
2023/11/27 00:48:27;;;;;;;34.97;20.88;;;;;;;7.34;77.07;99104.63;5012721;28;20061;-74
2023/11/27 00:50:54;;;;;;;32.28;19.95;;;;;;;7.32;76.88;99107.31;5004476;28;20465;-74
2023/11/27 00:53:20;;;;;;;34.35;19.80;;;;;;;7.31;77.45;99108.25;5012569;28;20120;-75
2023/11/27 00:55:47;;;;;;;30.20;20.25;;;;;;;7.30;77.09;99109.19;5012673;28;20054;-78
2023/11/27 00:58:14;;;;;;;34.20;19.83;;;;;;;7.28;77.21;99096.16;5011824;28;20108;-74
2023/11/27 01:00:40;;;;;;;32.33;21.10;;;;;;;7.27;77.02;99093.63;4994727;28;20042;-76
2023/11/27 01:03:07;;;;;;;32.00;20.08;;;;;;;7.24;76.83;99086.78;4994784;28;20057;-75
2023/11/27 01:05:34;;;;;;;29.45;20.00;;;;;;;7.24;76.72;99084.16;5012117;28;20081;-76
2023/11/27 01:08:00;;;;;;;31.15;19.92;;;;;;;7.22;77.04;99080.78;5012182;28;20054;-75
2023/11/27 01:10:27;;;;;;;30.90;19.33;;;;;;;7.22;77.09;99086.00;5012376;28;20104;-76
2023/11/27 01:12:53;;;;;;;31.33;20.25;;;;;;;7.20;76.98;99082.66;5012127;28;20054;-76
2023/11/27 01:15:21;;;;;;;31.77;18.70;;;;;;;7.20;77.08;99079.16;5012309;28;20513;-74
2023/11/27 01:17:48;;;;;;;36.85;19.35;;;;;;;7.17;77.03;99070.56;5012138;28;20094;-75
2023/11/27 01:20:15;;;;;;;33.90;19.70;;;;;;;7.17;77.25;99067.97;5011925;28;20053;-73
2023/11/27 01:22:42;;;;;;;30.27;19.92;;;;;;;7.17;77.00;99073.19;5011892;28;20054;-76
2023/11/27 01:25:09;;;;;;;30.10;17.73;;;;;;;7.17;76.67;99069.72;5012019;28;20057;-76
2023/11/27 01:27:36;;;;;;;30.38;17.35;;;;;;;7.16;76.94;99062.81;5011954;28;20053;-74
2023/11/27 01:30:06;;;;;;;28.98;17.67;;;;;;;7.15;77.19;99063.75;5011934;28;20054;-75
2023/11/27 01:32:32;;;;;;;28.48;17.98;;;;;;;7.15;76.82;99072.41;5011665;28;20061;-76
2023/11/27 01:34:59;;;;;;;26.33;17.33;;;;;;;7.14;77.00;99062.88;4995988;28;20116;-78
2023/11/27 01:37:26;;;;;;;26.45;17.48;;;;;;;7.15;76.95;99068.97;5011975;28;20073;-77
2023/11/27 01:39:53;;;;;;;32.03;17.55;;;;;;;7.14;77.34;99062.88;5011701;28;20050;-75
2023/11/27 01:42:19;;;;;;;28.25;17.15;;;;;;;7.14;77.45;99057.66;5011813;28;20545;-76
2023/11/27 01:44:46;;;;;;;26.23;16.25;;;;;;;7.16;77.06;99055.81;5011744;28;20519;-76
2023/11/27 01:47:14;;;;;;;26.85;17.35;;;;;;;7.14;77.18;99047.19;4994135;28;20046;-76
2023/11/27 01:49:41;;;;;;;27.90;17.08;;;;;;;7.14;76.93;99047.19;5011702;28;20045;-77
2023/11/27 01:52:09;;;;;;;25.27;17.05;;;;;;;7.13;77.01;99045.50;5011746;28;20149;-76
2023/11/27 01:54:40;;;;;;;28.73;16.17;;;;;;;7.11;76.31;99033.41;5011282;28;20048;-75
2023/11/27 01:57:07;;;;;;;27.75;16.42;;;;;;;7.10;76.68;99022.09;4994109;28;20133;-74
2023/11/27 01:59:35;;;;;;;28.05;15.80;;;;;;;7.08;76.71;99016.13;5011292;28;20082;-76
2023/11/27 02:02:02;;;;;;;24.38;15.93;;;;;;;7.05;76.55;99013.66;5011685;28;20097;-73
2023/11/27 02:04:29;;;;;;;25.02;15.55;;;;;;;7.03;76.82;99012.91;5011477;28;20041;-76
2023/11/27 02:06:56;;;;;;;21.00;14.52;;;;;;;7.00;76.54;99003.44;5011560;28;20060;-75
2023/11/27 02:09:23;;;;;;;19.85;13.23;;;;;;;6.99;76.93;99003.53;5011250;28;20045;-73
2023/11/27 02:11:50;;;;;;;18.80;12.90;;;;;;;6.97;76.68;98998.38;5011207;28;20097;-76
2023/11/27 02:14:17;;;;;;;26.98;13.13;;;;;;;6.96;76.40;98993.22;4993579;28;20479;-76
2023/11/27 02:16:45;;;;;;;19.48;12.50;;;;;;;6.94;76.61;98989.84;5011473;28;20050;-74
2023/11/27 02:19:16;;;;;;;24.83;12.10;;;;;;;6.93;76.63;98977.69;5011111;28;20056;-75
2023/11/27 02:21:44;;;;;;;21.92;13.48;;;;;;;6.90;76.17;98970.84;5011205;28;20066;-74
2023/11/27 02:24:11;;;;;;;19.38;12.25;;;;;;;6.89;76.48;98974.41;5011159;28;20046;-76
2023/11/27 02:26:38;;;;;;;18.48;11.32;;;;;;;6.85;76.14;98968.50;4993762;28;20405;-76
2023/11/27 02:29:04;;;;;;;16.95;11.35;;;;;;;6.83;76.38;98965.13;5003353;28;20037;-75
2023/11/27 02:31:31;;;;;;;18.55;12.32;;;;;;;6.81;76.25;98963.50;5011256;28;20052;-75
2023/11/27 02:33:58;;;;;;;17.02;11.27;;;;;;;6.77;75.77;98962.84;5011005;28;20050;-78
2023/11/27 02:36:26;;;;;;;19.73;11.75;;;;;;;6.73;76.06;98961.31;5011248;28;20137;-75
2023/11/27 02:38:54;;;;;;;16.65;11.75;;;;;;;6.68;75.88;98958.94;5010777;28;20491;-79
2023/11/27 02:41:21;;;;;;;19.58;12.18;;;;;;;6.64;76.32;98960.88;5010976;28;20065;-75
2023/11/27 02:43:48;;;;;;;18.52;11.48;;;;;;;6.60;76.33;98953.28;5011070;28;20060;-75
2023/11/27 02:46:15;;;;;;;18.52;12.07;;;;;;;6.56;76.21;98951.75;5011268;28;20105;-74
2023/11/27 02:48:42;;;;;;;21.02;12.27;;;;;;;6.53;76.24;98957.16;5010849;28;20048;-75
2023/11/27 02:51:09;;;;;;;18.60;11.23;;;;;;;6.48;76.29;98954.78;4993649;28;20105;-77
2023/11/27 02:53:36;;;;;;;15.70;11.13;;;;;;;6.43;76.50;98947.16;5010805;28;20493;-76
2023/11/27 02:56:03;;;;;;;14.02;10.82;;;;;;;6.42;76.49;98952.50;4993422;28;20046;-75
2023/11/27 02:58:30;;;;;;;14.65;9.93;;;;;;;6.38;76.44;98950.03;5010830;28;20053;-76
2023/11/27 03:00:56;;;;;;;17.45;10.27;;;;;;;6.36;76.74;98956.28;5010939;28;20096;-76
2023/11/27 03:03:23;;;;;;;16.23;10.13;;;;;;;6.35;76.71;98944.09;4993124;28;20446;-77
2023/11/27 03:05:50;;;;;;;19.88;10.60;;;;;;;6.33;76.84;98941.59;5010929;28;20053;-77
2023/11/27 03:08:16;;;;;;;15.98;10.40;;;;;;;6.32;76.89;98944.28;5010851;28;20096;-73
2023/11/27 03:10:43;;;;;;;15.50;9.60;;;;;;;6.30;76.74;98936.53;5010764;28;20046;-75
2023/11/27 03:13:09;;;;;;;14.63;9.63;;;;;;;6.28;76.99;98943.59;5010833;28;20073;-74
2023/11/27 03:15:36;;;;;;;15.70;9.90;;;;;;;6.26;76.81;98924.53;5010936;28;20049;-74
2023/11/27 03:18:03;;;;;;;14.65;9.93;;;;;;;6.24;77.07;98924.63;5010774;28;20414;-76
2023/11/27 03:20:29;;;;;;;14.00;9.35;;;;;;;6.25;76.97;98922.88;5012130;28;20056;-75
2023/11/27 03:22:56;;;;;;;15.60;10.90;;;;;;;6.23;77.22;98928.16;5013910;28;20418;-76
2023/11/27 03:25:23;;;;;;;14.18;10.43;;;;;;;6.22;77.24;98921.25;5014544;28;20045;-75
2023/11/27 03:27:49;;;;;;;13.45;10.07;;;;;;;6.23;77.40;98915.09;5014468;28;20494;-77
2023/11/27 03:30:16;;;;;;;16.63;10.80;;;;;;;6.24;77.41;98910.69;4996756;28;20046;-77
2023/11/27 03:32:43;;;;;;;16.50;11.40;;;;;;;6.23;77.21;98909.00;5014113;28;20045;-75
2023/11/27 03:35:09;;;;;;;15.57;10.93;;;;;;;6.22;76.99;98900.34;5013724;28;20045;-75
2023/11/27 03:37:36;;;;;;;17.55;11.07;;;;;;;6.23;77.41;98890.72;5014144;28;20046;-77
2023/11/27 03:40:03;;;;;;;14.93;10.93;;;;;;;6.22;77.21;98878.59;5013936;28;20571;-76
2023/11/27 03:42:31;;;;;;;16.17;11.50;;;;;;;6.21;77.28;98880.34;5014016;28;20050;-75
2023/11/27 03:44:58;;;;;;;17.13;12.32;;;;;;;6.22;77.34;98875.97;5013745;28;20104;-77
2023/11/27 03:47:25;;;;;;;16.83;12.32;;;;;;;6.21;77.43;98879.53;5013717;28;20042;-74
2023/11/27 03:49:52;;;;;;;15.82;12.25;;;;;;;6.22;77.59;98873.38;5013578;28;20066;-79
2023/11/27 03:52:22;;;;;;;17.80;13.35;;;;;;;6.20;77.31;98870.81;5013624;28;20049;-76
2023/11/27 03:54:49;;;;;;;17.50;12.15;;;;;;;6.20;77.01;98870.00;5013614;28;20053;-73
2023/11/27 03:57:16;;;;;;;15.80;11.32;;;;;;;6.18;77.28;98861.38;4996371;28;20050;-75
2023/11/27 03:59:43;;;;;;;13.27;10.32;;;;;;;6.16;76.90;98860.63;5013687;28;20407;-76
2023/11/27 04:02:09;;;;;;;16.75;10.65;;;;;;;6.13;76.95;98864.22;4995989;28;20049;-74
2023/11/27 04:04:39;;;;;;;12.35;9.73;;;;;;;6.09;76.68;98858.34;5013257;28;20042;-75
2023/11/27 04:07:06;;;;;;;11.77;8.73;;;;;;;6.08;77.10;98855.78;5013621;28;20058;-75
2023/11/27 04:09:33;;;;;;;11.27;8.52;;;;;;;6.06;76.60;98858.50;4996224;28;20105;-75
2023/11/27 04:12:00;;;;;;;8.25;7.30;;;;;;;6.03;76.47;98842.09;5013395;28;20053;-76
2023/11/27 04:14:27;;;;;;;8.93;6.57;;;;;;;5.98;76.08;98842.38;4995719;28;20486;-74
2023/11/27 04:16:53;;;;;;;6.90;6.20;;;;;;;5.93;76.08;98841.75;5013196;28;20053;-80
2023/11/27 04:19:20;;;;;;;9.90;6.47;;;;;;;5.87;75.89;98835.09;5013043;28;20494;-73
2023/11/27 04:21:47;;;;;;;8.30;6.40;;;;;;;5.81;76.16;98825.81;5013123;28;20475;-75
2023/11/27 04:24:14;;;;;;;10.48;6.43;;;;;;;5.77;76.51;98819.06;4995492;28;20042;-75
2023/11/27 04:26:40;;;;;;;9.10;6.88;;;;;;;5.74;76.70;98816.59;5013189;28;20117;-76
2023/11/27 04:29:07;;;;;;;9.60;7.03;;;;;;;5.68;76.46;98815.16;5012855;28;20056;-75
2023/11/27 04:31:34;;;;;;;10.05;7.10;;;;;;;5.67;76.49;98808.25;5011798;28;20053;-75
2023/11/27 04:34:01;;;;;;;7.97;7.13;;;;;;;5.65;76.86;98807.50;5012524;28;20062;-75
2023/11/27 04:36:28;;;;;;;7.70;6.53;;;;;;;5.64;77.32;98803.19;4995702;28;20069;-75
2023/11/27 04:38:54;;;;;;;9.27;6.65;;;;;;;5.65;77.46;98804.03;5012920;28;20081;-75
2023/11/27 04:41:21;;;;;;;10.90;6.82;;;;;;;5.66;77.82;98796.13;5012762;28;20707;-76
2023/11/27 04:43:48;;;;;;;8.90;6.50;;;;;;;5.69;77.82;98789.91;5012560;28;20050;-77
2023/11/27 04:46:15;;;;;;;9.13;6.95;;;;;;;5.72;77.53;98790.56;5004982;28;20046;-76
2023/11/27 04:48:41;;;;;;;8.93;6.72;;;;;;;5.74;77.62;98788.72;5012690;28;20045;-74
2023/11/27 04:51:08;;;;;;;9.93;6.57;;;;;;;5.76;77.24;98780.81;5012752;28;20112;-75
2023/11/27 04:53:35;;;;;;;6.88;6.10;;;;;;;5.79;77.27;98770.19;5012528;28;20045;-75
2023/11/27 04:56:02;;;;;;;7.88;6.43;;;;;;;5.80;77.19;98765.81;5012475;28;20057;-73
2023/11/27 04:58:29;;;;;;;8.38;6.35;;;;;;;5.81;77.34;98763.13;5012461;28;20042;-75
2023/11/27 05:00:55;;;;;;;7.90;6.32;;;;;;;5.83;77.36;98761.28;5012139;28;20046;-75
2023/11/27 05:03:22;;;;;;;9.32;6.93;;;;;;;5.84;77.47;98757.72;5012367;28;20048;-73
2023/11/27 05:05:49;;;;;;;7.97;6.40;;;;;;;5.86;77.15;98758.50;4994824;28;20507;-75
2023/11/27 05:08:15;;;;;;;8.60;6.50;;;;;;;5.86;77.02;98753.28;4994974;28;20050;-75
2023/11/27 05:10:42;;;;;;;8.43;6.30;;;;;;;5.87;77.24;98747.13;5012385;28;20053;-76
2023/11/27 05:13:09;;;;;;;10.38;6.72;;;;;;;5.88;76.97;98745.38;5012000;28;20050;-73
2023/11/27 05:15:36;;;;;;;10.45;6.57;;;;;;;5.89;77.04;98738.34;5012014;28;20049;-75
2023/11/27 05:18:04;;;;;;;8.82;6.55;;;;;;;5.89;77.29;98727.91;5012067;28;20049;-74
2023/11/27 05:20:31;;;;;;;9.70;7.47;;;;;;;5.91;77.26;98728.69;5012168;28;20050;-74
2023/11/27 05:23:03;;;;;;;13.93;8.20;;;;;;;5.92;77.32;98719.91;5011840;28;20046;-75
2023/11/27 05:25:30;;;;;;;9.68;7.65;;;;;;;5.92;76.78;98718.16;5012077;28;20410;-76
2023/11/27 05:27:56;;;;;;;10.35;7.45;;;;;;;5.93;76.93;98719.84;5011827;28;20681;-77
2023/11/27 05:30:23;;;;;;;10.50;8.20;;;;;;;5.94;77.02;98710.25;5012001;28;20052;-77
2023/11/27 05:32:50;;;;;;;13.18;8.52;;;;;;;5.93;77.04;98703.31;5012036;28;20046;-76
2023/11/27 05:35:17;;;;;;;10.23;8.45;;;;;;;5.94;76.56;98703.22;5011742;28;20045;-75
2023/11/27 05:37:44;;;;;;;9.63;8.63;;;;;;;5.94;76.63;98700.63;5011815;28;20053;-74
2023/11/27 05:40:10;;;;;;;10.18;8.68;;;;;;;5.94;77.24;98697.19;5011615;28;20054;-75
2023/11/27 05:42:39;;;;;;;10.20;8.07;;;;;;;5.94;76.66;98690.16;5011335;28;20045;-77
2023/11/27 05:45:10;;;;;;;9.77;8.23;;;;;;;5.95;76.88;98689.22;5011570;28;20046;-74
2023/11/27 05:47:41;;;;;;;10.77;8.65;;;;;;;5.97;76.68;98681.31;5011679;28;20097;-76
2023/11/27 05:50:10;;;;;;;9.77;8.13;;;;;;;5.96;76.92;98666.56;4994110;28;20058;-75
2023/11/27 05:52:36;;;;;;;9.93;7.82;;;;;;;5.97;76.61;98668.25;5011479;28;20046;-75
2023/11/27 05:55:03;;;;;;;10.48;7.65;;;;;;;5.97;76.56;98666.50;5011223;28;20085;-75
2023/11/27 05:57:30;;;;;;;10.55;7.78;;;;;;;5.97;76.52;98663.03;5011793;28;20041;-73
2023/11/27 05:59:57;;;;;;;10.50;7.60;;;;;;;5.98;76.58;98660.34;4993930;28;20547;-75
2023/11/27 06:02:23;;;;;;;11.45;8.00;;;;;;;5.98;76.64;98654.28;5003521;28;20116;-77
2023/11/27 06:04:50;;;;;;;10.95;8.10;;;;;;;5.96;76.27;98646.53;5011121;28;20383;-75
2023/11/27 06:07:17;;;;;;;9.20;7.82;;;;;;;5.98;76.54;98643.84;5011213;28;20069;-73
2023/11/27 06:09:44;;;;;;;11.35;8.05;;;;;;;5.97;76.52;98642.13;5011125;28;20064;-75
2023/11/27 06:12:11;;;;;;;11.52;8.38;;;;;;;5.96;76.39;98636.09;5010606;28;20057;-75
2023/11/27 06:14:39;;;;;;;9.68;7.95;;;;;;;5.97;76.22;98626.47;5009998;28;20113;-73
2023/11/27 06:17:06;;;;;;;10.93;8.27;;;;;;;5.96;76.45;98622.16;5010023;28;20486;-75
2023/11/27 06:19:33;;;;;;;9.60;8.60;;;;;;;5.96;76.26;98619.56;5010671;28;20054;-76
2023/11/27 06:22:00;;;;;;;10.70;8.80;;;;;;;5.95;76.37;98612.66;5010500;28;20061;-73
2023/11/27 06:24:28;;;;;;;11.85;8.93;;;;;;;5.94;76.45;98608.38;5010430;28;20046;-74
2023/11/27 06:26:55;;;;;;;10.30;8.38;;;;;;;5.94;76.52;98605.75;5010752;28;20060;-74
2023/11/27 06:29:22;;;;;;;9.93;8.38;;;;;;;5.94;76.79;98593.53;5010571;28;20120;-73
2023/11/27 06:31:49;;;;;;;12.50;8.35;;;;;;;5.96;76.48;98593.44;5010824;28;20054;-77
2023/11/27 06:34:16;;;;;;;10.68;8.70;;;;;;;5.96;76.70;98594.28;5010325;28;20050;-75
2023/11/27 06:36:43;;;;;;;10.65;8.70;;;;;;;5.96;76.43;98594.28;5010477;28;20038;-73
2023/11/27 06:39:10;;;;;;;11.27;8.90;;;;;;;5.96;76.47;98586.47;5010350;28;20050;-74
2023/11/27 06:41:37;;;;;;;13.35;9.25;;;;;;;5.97;76.12;98587.28;5010468;28;20057;-75
2023/11/27 06:44:04;;;;;;;13.75;9.40;;;;;;;5.96;76.03;98580.38;5010337;28;20049;-76
2023/11/27 06:46:31;;;;;;;14.23;9.43;;;;;;;5.93;76.17;98570.94;4993824;28;20191;-73
2023/11/27 06:48:58;;;;;;;10.48;9.18;;;;;;;5.94;76.51;98570.00;4992968;28;20046;-75
2023/11/27 06:51:24;;;;;;;12.40;9.23;;;;;;;5.94;76.65;98563.97;4985133;28;20050;-76
2023/11/27 06:53:51;;;;;;;10.82;8.93;;;;;;;5.95;76.78;98560.41;5010484;28;20140;-75
2023/11/27 06:56:18;;;;;;;11.45;9.25;;;;;;;5.95;76.89;98555.19;5013228;28;20049;-77
2023/11/27 06:58:44;;;;;;;12.02;8.95;;;;;;;5.96;76.82;98551.66;4996738;28;20466;-75
2023/11/27 07:01:11;;;;;;;15.63;10.20;;;;;;;5.96;76.80;98547.28;5014116;28;20112;-74
2023/11/27 07:03:39;;;;;;;11.68;9.18;;;;;;;5.96;76.63;98541.19;4996436;28;20056;-75
2023/11/27 07:06:06;;;;;;;11.45;9.40;;;;;;;5.97;76.55;98538.50;4996763;28;20081;-75
2023/11/27 07:08:34;;;;;;;12.45;9.43;;;;;;;5.97;76.75;98538.50;5014101;28;20085;-74
2023/11/27 07:11:02;;;;;;;13.32;9.02;;;;;;;5.99;76.51;98533.19;4996616;28;20050;-73
2023/11/27 07:13:29;;;;;;;10.82;8.90;;;;;;;5.98;76.66;98534.13;5006087;28;20049;-76
2023/11/27 07:15:57;;;;;;;14.80;9.18;;;;;;;6.00;76.64;98529.66;5013670;28;20050;-76
2023/11/27 07:18:24;;;;;;;12.07;9.02;;;;;;;5.99;76.59;98526.19;4996019;28;20133;-80
2023/11/27 07:21:00;;;;;;;11.10;8.88;;;;;;;5.99;76.29;98520.13;5012274;28;20050;-83
2023/11/27 07:23:27;;;;;;;14.90;9.50;;;;;;;5.99;76.24;98513.13;5005080;28;20416;-74
2023/11/27 07:25:56;;;;;;;11.77;8.85;;;;;;;5.98;76.53;98508.84;5013721;28;20057;-76
2023/11/27 07:28:23;;;;;;;13.20;8.65;;;;;;;6.00;76.73;98503.53;5013458;28;20056;-76
2023/11/27 07:30:50;;;;;;;12.60;9.10;;;;;;;6.00;76.64;98490.47;5013501;28;20053;-77
2023/11/27 07:33:17;;;;;;;11.45;8.70;;;;;;;5.99;76.61;98494.00;4995927;28;20061;-73
2023/11/27 07:35:43;;;;;;;11.50;8.30;;;;;;;5.99;76.56;98494.00;5013576;28;20054;-73
2023/11/27 07:38:10;;;;;;;12.00;8.52;;;;;;;5.98;76.63;98498.38;5013195;28;20053;-76
2023/11/27 07:40:36;;;;;;;15.75;8.68;;;;;;;5.99;76.59;98496.63;5013329;28;20046;-74
2023/11/27 07:43:10;;;;;;;10.43;7.60;;;;;;;6.00;76.68;98493.94;4995431;28;20045;-73
2023/11/27 07:45:37;;;;;;;9.52;8.18;;;;;;;6.00;76.49;98490.47;5013168;28;20514;-73
2023/11/27 07:48:04;;;;;;;9.55;7.75;;;;;;;5.99;76.37;98479.16;4995430;28;20050;-74
2023/11/27 07:50:30;;;;;;;14.52;9.25;;;;;;;6.00;76.64;98483.47;5013235;28;20054;-76
2023/11/27 07:52:57;;;;;;;11.98;8.77;;;;;;;6.00;76.76;98472.19;5013046;28;20061;-75
2023/11/27 07:55:23;;;;;;;10.73;7.55;;;;;;;6.01;76.73;98473.84;5012890;28;20049;-75
2023/11/27 07:57:50;;;;;;;10.27;7.50;;;;;;;6.02;76.78;98472.09;4995288;28;20050;-74
2023/11/27 08:00:17;;;;;;;9.68;7.65;;;;;;;6.04;76.57;98472.84;5012837;28;20058;-75
2023/11/27 08:02:43;;;;;;;13.10;8.00;;;;;;;6.05;76.69;98464.13;5013025;28;20045;-76
2023/11/27 08:05:11;;;;;;;11.85;8.40;;;;;;;6.05;76.55;98457.09;5012750;28;20054;-75
2023/11/27 08:07:38;;;;;;;10.35;7.70;;;;;;;6.06;76.82;98456.16;5012737;28;20112;-74
2023/11/27 08:10:07;;;;;;;8.93;7.25;;;;;;;6.08;76.79;98456.94;4995189;28;20565;-76
2023/11/27 08:12:36;;;;;;;10.43;7.55;;;;;;;6.08;76.69;98449.09;5004993;28;20418;-74
2023/11/27 08:15:06;;;;;;;11.20;7.60;;;;;;;6.09;76.77;98442.91;5012589;28;20136;-76
2023/11/27 08:17:33;;;;;;;9.50;7.07;;;;;;;6.10;76.83;98439.38;5012969;28;20053;-75
2023/11/27 08:20:04;;;;;;;10.50;7.72;;;;;;;6.09;76.35;98432.47;5012625;28;20054;-76
2023/11/27 08:22:31;;;;;;;8.13;7.00;;;;;;;6.10;76.41;98436.75;5012625;28;20045;-75
2023/11/27 08:25:00;;;;;;;10.32;7.13;;;;;;;6.10;76.54;98426.31;4994905;28;20137;-74
2023/11/27 08:27:26;;;;;;;10.05;6.95;;;;;;;6.11;76.71;98422.78;5012392;28;20435;-73
2023/11/27 08:29:53;;;;;;;9.05;6.78;;;;;;;6.12;76.33;98421.84;5012322;28;20050;-77
2023/11/27 08:32:19;;;;;;;7.93;6.75;;;;;;;6.13;76.55;98417.44;5012582;28;20149;-76
2023/11/27 08:34:46;;;;;;;10.07;6.57;;;;;;;6.14;76.55;98416.53;5012116;28;20046;-77
2023/11/27 08:37:16;;;;;;;9.55;6.78;;;;;;;6.16;76.53;98411.22;5012218;28;20109;-75
2023/11/27 08:39:43;;;;;;;8.25;6.53;;;;;;;6.17;76.12;98407.66;5012214;28;20061;-76
2023/11/27 08:42:10;;;;;;;8.45;6.32;;;;;;;6.18;76.26;98396.28;5012263;28;20475;-77
2023/11/27 08:44:37;;;;;;;7.97;6.03;;;;;;;6.18;76.33;98398.88;5011844;28;20558;-77
2023/11/27 08:47:05;;;;;;;7.95;6.18;;;;;;;6.18;76.20;98393.66;5012199;28;20112;-75
2023/11/27 08:49:32;;;;;;;7.82;5.80;;;;;;;6.17;76.21;98386.75;4994397;28;20048;-74
2023/11/27 08:51:59;;;;;;;8.57;5.97;;;;;;;6.17;76.01;98386.75;5012065;28;20147;-74
2023/11/27 08:54:32;;;;;;;9.55;6.20;;;;;;;6.16;75.50;98377.25;5011864;28;20077;-73
2023/11/27 08:56:59;;;;;;;;;;;;;;;6.15;74.99;98380.78;5012615;28;20054;-75
2023/11/27 08:59:26;;;;;;;8.05;5.18;;;;;;;6.16;75.58;98372.84;5011679;28;19980;-77
2023/11/27 09:01:52;;;;;;;8.85;5.65;;;;;;;6.12;75.69;98361.75;4994358;28;20042;-74
2023/11/27 09:04:19;;;;;;;7.90;5.25;;;;;;;6.09;75.66;98369.78;5011684;28;20054;-75
2023/11/27 09:06:46;;;;;;;6.28;5.22;;;;;;;6.06;75.76;98353.47;5011727;28;20073;-76
2023/11/27 09:09:12;;;;;;;6.78;5.63;;;;;;;6.04;75.33;98365.75;5011458;28;20539;-75
2023/11/27 09:11:39;;;;;;;6.82;5.32;;;;;;;6.00;75.65;98352.88;4994119;28;20442;-72
2023/11/27 09:14:05;;;;;;;9.32;5.68;;;;;;;5.99;75.68;98364.22;5011592;28;20116;-75
2023/11/27 09:16:32;;;;;;;7.32;5.50;;;;;;;5.97;75.54;98363.50;5011493;28;20795;-74
2023/11/27 09:18:59;;;;;;;11.32;5.88;;;;;;;5.96;75.93;98358.34;5002814;28;20481;-75
2023/11/27 09:21:26;;;;;;;7.38;5.80;;;;;;;5.94;76.20;98355.84;4993767;28;20133;-75
2023/11/27 09:23:54;;;;;;;7.63;5.25;;;;;;;5.95;75.93;98343.63;5011445;28;20050;-76
2023/11/27 09:26:21;;;;;;;8.52;5.82;;;;;;;5.95;76.19;98339.22;5011508;28;20060;-77
2023/11/27 09:28:47;;;;;;;11.32;6.55;;;;;;;5.96;76.08;98332.25;4993842;28;20048;-74
2023/11/27 09:31:15;;;;;;;6.68;5.55;;;;;;;5.97;75.86;98328.69;5011427;28;20049;-77
2023/11/27 09:33:42;;;;;;;9.27;5.57;;;;;;;5.98;76.08;98333.00;5003198;28;20054;-75
2023/11/27 09:36:13;;;;;;;5.93;5.22;;;;;;;5.96;75.68;98325.25;5011524;28;20077;-75
2023/11/27 09:38:43;;;;;;;8.20;4.97;;;;;;;5.96;75.50;98327.03;5011133;28;20053;-74
2023/11/27 09:41:10;;;;;;;6.80;5.10;;;;;;;5.95;75.70;98326.16;4993646;28;20057;-77
2023/11/27 09:43:37;;;;;;;8.07;4.93;;;;;;;5.93;76.03;98315.00;5011011;28;20058;-79
2023/11/27 09:46:16;;;;;;;8.30;5.57;;;;;;;5.91;75.07;98318.63;5011142;28;20137;-77
2023/11/27 09:48:44;;;;;;;7.75;5.40;;;;;;;5.92;75.50;98309.84;5003250;28;20105;-77
2023/11/27 09:51:12;;;;;;;8.82;5.97;;;;;;;5.91;75.74;98319.44;5011189;28;20050;-75
2023/11/27 09:53:54;;;;;;;9.18;5.72;;;;;;;5.86;74.51;98304.09;4993378;28;20081;-75
2023/11/27 09:56:27;;;;;;;10.98;6.50;;;;;;;5.89;75.65;98305.66;5010981;28;20109;-77
2023/11/27 09:58:59;;;;;;;11.52;6.55;;;;;;;5.89;75.69;98299.59;5010912;28;20108;-76
2023/11/27 10:01:27;;;;;;;10.33;6.60;;;;;;;5.89;75.67;98297.81;5009960;28;20669;-78
2023/11/27 10:04:00;;;;;;;9.60;6.18;;;;;;;5.86;75.10;98296.25;5004191;28;20502;-77
2023/11/27 10:06:32;;;;;;;10.32;6.43;;;;;;;5.84;74.76;98290.25;4993465;28;20056;-76
2023/11/27 10:09:08;;;;;;;8.25;5.47;;;;;;;5.81;74.56;98282.63;5010934;28;20521;-75
2023/11/27 10:11:36;;;;;;;10.65;6.10;;;;;;;5.84;75.45;98281.59;5010675;28;20053;-73
2023/11/27 10:14:08;;;;;;;9.82;6.20;;;;;;;5.81;75.36;98274.81;5010768;28;20049;-76
2023/11/27 10:16:58;;;;;;;9.68;5.85;;;;;;;5.80;75.33;98277.50;4996451;28;20054;-76
2023/11/27 10:19:26;;;;;;;8.48;5.20;;;;;;;5.78;75.06;98258.47;4993233;28;20065;-74
2023/11/27 10:21:56;;;;;;;7.55;5.65;;;;;;;5.76;75.35;98253.38;5010526;28;20502;-72
2023/11/27 10:24:22;;;;;;;8.25;5.38;;;;;;;5.74;75.26;98244.78;5010419;28;20057;-73
2023/11/27 10:26:49;;;;;;;6.55;4.97;;;;;;;5.72;74.91;98249.25;4993292;28;20046;-77
2023/11/27 10:29:33;;;;;;;5.65;4.80;;;;;;;5.66;73.80;98236.56;5011883;28;20112;-77
2023/11/27 10:32:00;;;;;;;5.38;4.88;;;;;;;5.67;74.58;98233.88;5014754;28;20057;-73
2023/11/27 10:34:32;;;;;;;5.22;4.40;;;;;;;5.63;74.28;98231.53;5014309;28;20061;-78
2023/11/27 10:37:02;;;;;;;5.38;4.60;;;;;;;5.61;74.68;98219.41;4997285;28;20054;-73
2023/11/27 10:39:34;;;;;;;5.15;4.30;;;;;;;5.58;74.68;98214.38;5014634;28;20073;-74
2023/11/27 10:42:03;;;;;;;5.60;4.15;;;;;;;5.56;74.74;98208.44;5014620;28;20049;-74
2023/11/27 10:44:35;;;;;;;4.10;3.58;;;;;;;5.52;74.00;98203.47;5014244;28;20112;-74
2023/11/27 10:47:10;;;;;;;4.15;3.75;;;;;;;5.50;74.28;98206.19;4996984;28;20655;-77
2023/11/27 10:49:38;;;;;;;4.40;3.83;;;;;;;5.48;74.44;98198.47;5014501;28;20054;-73
2023/11/27 10:52:09;;;;;;;4.13;3.72;;;;;;;5.47;74.63;98193.34;5014558;28;20081;-73
2023/11/27 10:54:40;;;;;;;5.97;4.43;;;;;;;5.41;74.19;98181.50;5014068;28;20442;-73
2023/11/27 10:57:08;;;;;;;4.85;3.85;;;;;;;5.40;74.74;98179.81;5014282;28;20093;-72
2023/11/27 10:59:38;;;;;;;5.38;3.85;;;;;;;5.36;74.35;98167.91;5014020;28;20533;-73
2023/11/27 11:02:08;;;;;;;4.53;3.80;;;;;;;5.34;74.69;98157.56;4996621;28;20042;-75
2023/11/27 11:04:40;;;;;;;4.22;3.75;;;;;;;5.33;74.81;98153.28;4996301;28;20046;-73
2023/11/27 11:07:19;;;;;;;3.95;3.55;;;;;;;5.30;74.09;98144.78;4996700;28;20050;-75
2023/11/27 11:09:49;;;;;;;4.65;3.60;;;;;;;5.28;74.35;98139.69;5013844;28;20073;-77
2023/11/27 11:12:23;;;;;;;3.50;3.17;;;;;;;5.24;73.93;98135.56;4996600;28;20101;-73
2023/11/27 11:14:57;;;;;;;3.90;3.20;;;;;;;5.22;74.12;98132.22;4996283;28;20041;-76
2023/11/27 11:17:54;;;;;;;3.40;2.88;;;;;;;5.20;74.64;98128.88;5013913;28;20077;-74
2023/11/27 11:20:34;;;;;;;2.78;2.53;;;;;;;5.18;74.42;98120.28;4982422;28;20081;-76
2023/11/27 11:23:16;;;;;;;4.07;3.17;;;;;;;5.16;74.12;98116.94;4996045;28;20049;-74
2023/11/27 11:26:21;;;;;;;3.53;3.22;;;;;;;5.14;74.31;98111.81;4996262;28;20096;-76
2023/11/27 11:29:11;;;;;;;3.05;2.75;;;;;;;5.11;74.17;98092.88;5013878;28;20129;-75
2023/11/27 11:31:48;;;;;;;3.97;3.00;;;;;;;5.05;73.86;98087.13;5013642;28;20104;-79
2023/11/27 11:34:23;;;;;;;3.63;3.33;;;;;;;5.03;73.87;98088.16;5013376;28;20054;-73
2023/11/27 11:37:00;;;;;;;3.30;2.83;;;;;;;4.98;73.95;98085.84;5013463;28;20050;-74
2023/11/27 11:39:27;;;;;;;4.97;3.30;;;;;;;4.96;74.75;98085.09;5013366;28;20561;-75